createdAt,value
2019-05-02T00:01:56.744Z,13.93
2019-05-02T00:04:36.991Z,14.50
2019-05-02T00:07:14.559Z,14.13
2019-05-02T00:09:48.503Z,15.23
2019-05-02T00:12:20.770Z,13.93
2019-05-02T00:14:51.417Z,15.63
2019-05-02T00:17:25.732Z,17.17
2019-05-02T00:19:54.646Z,18.63
2019-05-02T00:22:25.272Z,18.33
2019-05-02T00:24:56.809Z,17.93
2019-05-02T00:27:37.676Z,17.93
2019-05-02T00:30:10.461Z,17.40
2019-05-02T00:32:40.945Z,17.97
2019-05-02T00:35:11.538Z,17.57
2019-05-02T00:37:42.433Z,18.73
2019-05-02T00:40:13.302Z,17.50
2019-05-02T00:42:58.330Z,18.93
2019-05-02T00:45:26.066Z,18.20
2019-05-02T00:48:04.392Z,18.30
2019-05-02T00:50:40.712Z,18.00
2019-05-02T00:53:13.519Z,18.43
2019-05-02T00:55:44.067Z,18.80
2019-05-02T00:58:14.678Z,18.57
2019-05-02T01:01:02.777Z,18.97
2019-05-02T01:03:35.046Z,19.80
2019-05-02T01:06:13.646Z,19.73
2019-05-02T01:08:38.184Z,19.20
2019-05-02T01:11:08.859Z,19.63
2019-05-02T01:13:39.396Z,18.17
2019-05-02T01:16:15.146Z,18.73
2019-05-02T01:18:43.445Z,18.37
2019-05-02T01:21:14.001Z,18.90
2019-05-02T01:23:44.449Z,18.93
2019-05-02T01:26:24.156Z,18.90
2019-05-02T01:29:05.225Z,19.27
2019-05-02T01:31:37.274Z,19.27
2019-05-02T01:34:25.845Z,20.43
2019-05-02T01:36:58.058Z,19.63
2019-05-02T01:39:28.593Z,19.53
2019-05-02T01:42:16.609Z,19.73
2019-05-02T01:44:47.057Z,19.43
2019-05-02T01:47:17.652Z,19.83
2019-05-02T01:49:52.088Z,19.27
2019-05-02T01:52:23.780Z,18.97
2019-05-02T01:54:52.608Z,21.17
2019-05-02T01:57:23.098Z,19.67
2019-05-02T01:59:54.398Z,19.87
2019-05-02T02:02:28.009Z,20.00
2019-05-02T02:04:58.071Z,19.97
2019-05-02T02:07:28.543Z,21.17
2019-05-02T02:09:59.099Z,21.27
2019-05-02T02:12:29.822Z,20.63
2019-05-02T02:33:41.120Z,19.03
2019-05-02T02:36:12.166Z,19.33
2019-05-02T02:38:42.925Z,19.27
2019-05-02T02:41:15.104Z,20.00
2019-05-02T02:43:48.332Z,20.07
2019-05-02T02:46:30.857Z,19.57
2019-05-02T02:49:01.533Z,20.37
2019-05-02T02:51:32.015Z,20.57
2019-05-02T02:54:03.753Z,18.93
2019-05-02T02:56:40.547Z,20.23
2019-05-02T02:59:07.172Z,20.20
2019-05-02T03:01:37.713Z,19.57
2019-05-02T03:04:09.801Z,21.10
2019-05-02T03:06:44.816Z,20.90
2019-05-02T03:09:20.538Z,20.17
2019-05-02T03:12:04.739Z,20.47
2019-05-02T03:14:40.932Z,18.67
2019-05-02T03:17:26.544Z,20.03
2019-05-02T03:20:01.009Z,19.93
2019-05-02T03:22:27.362Z,18.90
2019-05-02T03:24:57.976Z,19.70
2019-05-02T03:27:29.866Z,19.70
2019-05-02T03:30:03.244Z,19.73
2019-05-02T03:32:36.362Z,20.17
2019-05-02T03:35:09.821Z,20.43
2019-05-02T03:37:44.689Z,20.03
2019-05-02T03:40:12.669Z,19.77
2019-05-02T03:42:44.808Z,19.53
2019-05-02T03:45:16.497Z,21.13
2019-05-02T03:47:48.724Z,20.00
2019-05-02T03:50:31.363Z,20.30
2019-05-02T03:52:51.684Z,19.83
2019-05-02T03:55:24.057Z,20.57
2019-05-02T03:57:54.999Z,20.53
2019-05-02T04:00:25.539Z,19.57
2019-05-02T04:03:00.852Z,19.43
2019-05-02T04:05:33.850Z,20.23
2019-05-02T04:08:20.042Z,19.70
2019-05-02T04:10:52.922Z,20.27
2019-05-02T04:13:22.473Z,19.63
2019-05-02T04:15:53.102Z,21.07
2019-05-02T04:18:24.326Z,21.07
2019-05-02T04:20:55.211Z,20.47
2019-05-02T04:23:27.503Z,20.57
2019-05-02T04:26:06.738Z,20.57
2019-05-02T04:28:34.757Z,19.23
2019-05-02T04:31:05.637Z,19.43
2019-05-02T04:33:36.583Z,20.33
2019-05-02T04:39:21.606Z,18.43
2019-05-02T04:41:50.727Z,18.80
2019-05-02T04:44:21.287Z,18.67
2019-05-02T04:46:51.862Z,18.27
2019-05-02T04:49:29.783Z,19.00
2019-05-02T04:52:01.591Z,17.07
2019-05-02T04:54:32.208Z,17.93
2019-05-02T04:57:02.369Z,17.57
2019-05-02T04:59:33.457Z,17.47
2019-05-02T05:02:05.353Z,16.67
2019-05-02T05:04:42.477Z,17.73
2019-05-02T05:07:09.268Z,18.00
2019-05-02T05:09:40.549Z,18.33
2019-05-02T05:12:11.349Z,17.87
2019-05-02T05:14:43.207Z,18.30
2019-05-02T05:17:17.955Z,18.33
2019-05-02T05:19:48.712Z,17.07
2019-05-02T05:22:19.416Z,17.93
2019-05-02T05:24:58.258Z,16.87
2019-05-02T05:27:28.919Z,18.23
2019-05-02T05:30:05.782Z,19.23
2019-05-02T05:32:32.324Z,18.43
2019-05-02T05:35:09.031Z,17.47
2019-05-02T05:37:43.264Z,18.47
2019-05-02T05:40:11.909Z,18.53
2019-05-02T05:42:42.496Z,18.80
2019-05-02T05:45:14.002Z,18.80
2019-05-02T05:47:44.838Z,18.97
2019-05-02T05:50:17.657Z,17.47
2019-05-02T05:52:48.333Z,19.10
2019-05-02T05:55:24.076Z,17.97
2019-05-02T05:57:59.714Z,18.87
2019-05-02T06:00:24.017Z,18.73
2019-05-02T06:03:01.416Z,18.23
2019-05-02T06:05:27.686Z,17.83
2019-05-02T06:07:58.289Z,18.43
2019-05-02T06:10:28.694Z,18.90
2019-05-02T06:12:59.226Z,17.37
2019-05-02T06:15:33.919Z,17.90
2019-05-02T06:18:04.749Z,17.23
2019-05-02T06:20:34.278Z,16.83
2019-05-02T06:23:07.264Z,16.20
2019-05-02T06:25:37.693Z,17.17
2019-05-02T06:28:23.007Z,15.70
2019-05-02T06:30:53.416Z,16.50
2019-05-02T06:33:25.886Z,18.43
2019-05-02T06:36:01.125Z,15.37
2019-05-02T06:38:28.346Z,15.77
2019-05-02T06:40:59.740Z,14.47
2019-05-02T06:43:30.314Z,14.83
2019-05-02T06:46:00.845Z,14.27
2019-05-02T06:48:32.769Z,15.00
2019-05-02T06:51:03.391Z,14.30
2019-05-02T06:53:35.170Z,14.73
2019-05-02T06:56:08.026Z,14.93
2019-05-02T06:58:42.097Z,14.17
2019-05-02T07:01:10.777Z,14.73
2019-05-02T07:03:45.904Z,13.93
2019-05-02T07:06:13.787Z,15.10
2019-05-02T07:08:44.378Z,14.50
2019-05-02T07:11:14.995Z,14.77
2019-05-02T07:13:46.427Z,14.63
2019-05-02T07:16:38.962Z,13.87
2019-05-02T07:19:29.175Z,14.83
2019-05-02T07:22:03.817Z,12.87
2019-05-02T07:24:32.677Z,13.37
2019-05-02T07:27:03.496Z,14.50
2019-05-02T07:29:34.161Z,14.23
2019-05-02T07:32:04.748Z,14.23
2019-05-02T07:34:35.332Z,13.87
2019-05-02T07:37:08.357Z,13.60
2019-05-02T07:39:40.964Z,13.13
2019-05-02T07:42:11.553Z,13.17
2019-05-02T07:44:42.282Z,13.00
2019-05-02T07:47:12.839Z,14.20
2019-05-02T07:49:45.561Z,13.57
2019-05-02T07:52:16.026Z,13.53
2019-05-02T07:54:46.613Z,12.73
2019-05-02T07:57:17.166Z,12.97
2019-05-02T07:59:49.763Z,12.33
2019-05-02T08:02:24.635Z,13.10
2019-05-02T08:04:52.371Z,12.87
2019-05-02T08:07:25.876Z,12.73
2019-05-02T08:09:55.241Z,11.93
2019-05-02T08:12:25.876Z,12.03
2019-05-02T08:14:56.523Z,12.13
2019-05-02T08:17:27.171Z,12.47
2019-05-02T08:19:57.705Z,12.23
2019-05-02T08:22:29.503Z,12.70
2019-05-02T08:25:00.160Z,11.87
2019-05-02T08:27:34.753Z,13.03
2019-05-02T08:30:10.470Z,11.37
2019-05-02T08:32:41.117Z,12.37
2019-05-02T08:35:11.937Z,12.07
2019-05-02T08:37:43.075Z,12.30
2019-05-02T08:40:15.112Z,12.40
2019-05-02T08:42:46.501Z,12.17
2019-05-02T08:45:17.464Z,12.37
2019-05-02T08:47:47.914Z,11.63
2019-05-02T08:50:18.697Z,11.07
2019-05-02T08:52:49.258Z,11.40
2019-05-02T08:55:19.845Z,11.00
2019-05-02T08:57:50.435Z,10.07
2019-05-02T09:00:22.341Z,10.43
2019-05-02T09:02:57.037Z,9.63
2019-05-02T09:05:25.248Z,10.43
2019-05-02T09:07:58.686Z,8.23
2019-05-02T09:10:29.266Z,9.23
2019-05-02T09:13:02.673Z,9.30
2019-05-02T09:15:35.322Z,9.30
2019-05-02T09:18:06.922Z,9.17
2019-05-02T09:20:38.322Z,9.70
2019-05-02T09:23:08.872Z,9.87
2019-05-02T09:25:39.463Z,8.77
2019-05-02T09:28:09.997Z,8.90
2019-05-02T09:30:41.934Z,10.57
2019-05-02T09:33:12.696Z,10.80
2019-05-02T09:35:43.365Z,11.07
2019-05-02T09:38:16.327Z,10.13
2019-05-02T09:40:47.130Z,10.60
2019-05-02T09:43:19.790Z,10.67
2019-05-02T09:45:51.997Z,11.63
2019-05-02T09:48:26.748Z,11.40
2019-05-02T09:50:58.132Z,11.50
2019-05-02T09:53:32.313Z,10.90
2019-05-02T09:56:02.282Z,11.83
2019-05-02T09:58:33.157Z,11.03
2019-05-02T10:01:22.467Z,11.50
2019-05-02T10:03:53.343Z,10.60
2019-05-02T10:06:24.086Z,10.50
2019-05-02T10:08:54.989Z,11.67
2019-05-02T10:11:26.336Z,10.50
2019-05-02T10:14:02.441Z,10.23
2019-05-02T10:16:33.279Z,10.50
2019-05-02T10:19:09.575Z,10.00
2019-05-02T10:21:36.445Z,10.40
2019-05-02T10:24:07.061Z,10.50
2019-05-02T10:26:37.623Z,10.33
2019-05-02T10:29:08.257Z,10.40
2019-05-02T10:31:42.101Z,9.93
2019-05-02T10:34:16.190Z,10.20
2019-05-02T10:36:45.564Z,9.43
2019-05-02T10:39:16.484Z,8.40
2019-05-02T10:41:47.060Z,9.43
2019-05-02T10:46:53.406Z,9.40
2019-05-02T10:49:45.802Z,9.20
2019-05-02T10:52:22.878Z,8.90
2019-05-02T10:54:52.833Z,9.20
2019-05-02T10:57:24.136Z,9.67
2019-05-02T10:59:56.261Z,10.30
2019-05-02T11:02:32.757Z,9.83
2019-05-02T11:05:11.990Z,9.93
2019-05-02T11:07:43.184Z,9.83
2019-05-02T11:10:14.192Z,9.33
2019-05-02T11:12:47.146Z,9.00
2019-05-02T11:15:35.798Z,8.87
2019-05-02T11:18:06.544Z,8.57
2019-05-02T11:20:37.272Z,8.90
2019-05-02T11:23:08.091Z,8.27
2019-05-02T11:25:38.656Z,8.10
2019-05-02T11:28:09.245Z,8.33
2019-05-02T11:30:42.003Z,7.23
2019-05-02T11:33:13.587Z,6.40
2019-05-02T11:35:49.191Z,6.80
2019-05-02T11:38:41.395Z,5.83
2019-05-02T11:40:52.634Z,6.53
2019-05-02T11:43:23.148Z,7.03
2019-05-02T11:46:02.526Z,6.57
2019-05-02T11:48:26.683Z,6.57
2019-05-02T11:50:58.140Z,6.97
2019-05-02T11:53:29.657Z,6.33
2019-05-02T11:56:03.719Z,7.20
2019-05-02T11:58:32.718Z,7.33
2019-05-02T12:01:05.421Z,7.00
2019-05-02T12:03:38.302Z,6.70
2019-05-02T12:06:12.726Z,7.13
2019-05-02T12:08:49.064Z,7.60
2019-05-02T12:11:17.721Z,6.37
2019-05-02T12:13:55.060Z,7.03
2019-05-02T12:16:23.842Z,7.13
2019-05-02T12:19:07.916Z,6.90
2019-05-02T12:21:26.932Z,7.10
2019-05-02T12:23:57.895Z,7.10
2019-05-02T12:26:28.997Z,7.07
2019-05-02T12:28:59.628Z,7.20
2019-05-02T12:31:32.660Z,7.60
2019-05-02T12:34:08.147Z,7.43
2019-05-02T12:36:39.027Z,7.50
2019-05-02T12:39:12.488Z,7.53
2019-05-02T12:41:42.652Z,7.87
2019-05-02T12:44:13.551Z,7.60
2019-05-02T12:46:45.675Z,7.97
2019-05-02T12:49:26.967Z,7.57
2019-05-02T12:51:48.844Z,7.23
2019-05-02T12:54:21.858Z,7.07
2019-05-02T12:56:52.948Z,8.17
2019-05-02T12:59:23.751Z,7.33
2019-05-02T13:01:54.854Z,7.77
2019-05-02T13:04:25.339Z,7.20
2019-05-02T13:06:55.917Z,7.77
2019-05-02T13:09:26.993Z,7.87
2019-05-02T13:11:59.494Z,7.97
2019-05-02T13:14:31.886Z,8.03
2019-05-02T13:17:07.408Z,7.70
2019-05-02T13:19:41.620Z,7.00
2019-05-02T13:22:17.204Z,7.40
2019-05-02T13:24:54.084Z,7.03
2019-05-02T13:27:22.838Z,8.03
2019-05-02T13:29:53.741Z,7.67
2019-05-02T13:32:32.159Z,7.93
2019-05-02T13:35:04.713Z,8.30
2019-05-02T13:37:36.228Z,7.67
2019-05-02T13:40:29.263Z,7.83
2019-05-02T13:43:01.813Z,7.73
2019-05-02T13:45:34.491Z,7.20
2019-05-02T13:48:06.699Z,7.63
2019-05-02T13:50:37.384Z,7.17
2019-05-02T13:53:07.962Z,7.80
2019-05-02T13:55:42.928Z,6.60
2019-05-02T13:58:13.527Z,7.00
2019-05-02T14:00:48.325Z,7.10
2019-05-02T14:03:19.822Z,6.77
2019-05-02T14:05:53.831Z,6.93
2019-05-02T14:08:27.601Z,7.77
2019-05-02T14:11:08.803Z,7.47
2019-05-02T14:13:40.294Z,7.50
2019-05-02T14:16:12.191Z,7.77
2019-05-02T14:18:45.960Z,7.27
2019-05-02T14:21:16.566Z,7.07
2019-05-02T14:23:47.208Z,7.27
2019-05-02T14:26:29.676Z,6.97
2019-05-02T14:28:56.149Z,6.90
2019-05-02T14:31:27.282Z,6.90
2019-05-02T14:34:16.975Z,7.17
2019-05-02T14:36:47.569Z,7.23
2019-05-02T14:39:24.162Z,7.10
2019-05-02T14:42:02.103Z,6.53
2019-05-02T14:45:01.231Z,6.60
2019-05-02T14:47:10.107Z,7.50
2019-05-02T14:49:43.177Z,6.70
2019-05-02T14:52:14.972Z,7.00
2019-05-02T14:54:47.925Z,8.40
2019-05-02T14:57:22.915Z,7.43
2019-05-02T14:59:59.069Z,7.97
2019-05-02T15:02:32.760Z,6.50
2019-05-02T15:05:05.075Z,8.90
2019-05-02T15:07:38.428Z,8.87
2019-05-02T15:10:12.617Z,7.47
2019-05-02T15:12:43.367Z,6.87
2019-05-02T15:15:16.067Z,7.27
2019-05-02T15:17:47.050Z,6.40
2019-05-02T15:20:35.794Z,6.90
2019-05-02T15:23:02.586Z,7.80
2019-05-02T15:25:37.538Z,6.93
2019-05-02T15:28:09.710Z,6.93
2019-05-02T15:30:44.829Z,7.23
2019-05-02T15:33:17.046Z,6.87
2019-05-02T15:35:50.015Z,6.83
2019-05-02T15:38:27.255Z,6.90
2019-05-02T15:40:53.824Z,6.60
2019-05-02T15:43:25.194Z,8.07
2019-05-02T15:45:55.874Z,7.53
2019-05-02T15:48:27.701Z,6.37
2019-05-02T15:51:00.256Z,7.03
2019-05-02T15:53:39.052Z,8.37
2019-05-02T15:56:18.611Z,7.40
2019-05-02T15:58:42.524Z,7.83
2019-05-02T16:01:14.900Z,7.93
2019-05-02T16:03:48.679Z,7.63
2019-05-02T16:06:21.866Z,8.77
2019-05-02T16:08:52.068Z,9.90
2019-05-02T16:11:23.282Z,9.13
2019-05-02T16:13:55.796Z,8.30
2019-05-02T16:16:26.014Z,7.77
2019-05-02T16:18:56.491Z,8.17
2019-05-02T16:21:39.042Z,8.27
2019-05-02T16:24:14.956Z,8.57
2019-05-02T16:26:46.995Z,8.37
2019-05-02T16:29:23.730Z,10.60
2019-05-02T16:32:03.516Z,9.93
2019-05-02T16:34:35.492Z,8.73
2019-05-02T16:37:14.986Z,8.23
2019-05-02T16:39:59.840Z,8.70
2019-05-02T16:42:28.981Z,9.00
2019-05-02T16:45:02.731Z,9.33
2019-05-02T16:47:34.872Z,8.07
2019-05-02T16:50:13.284Z,8.43
2019-05-02T16:52:47.206Z,9.50
2019-05-02T16:55:21.072Z,8.37
2019-05-02T16:57:51.771Z,8.30
2019-05-02T17:00:25.730Z,9.33
2019-05-02T17:02:57.131Z,8.20
2019-05-02T17:05:27.695Z,7.83
2019-05-02T17:08:02.121Z,7.40
2019-05-02T17:10:47.331Z,7.90
2019-05-02T17:13:17.890Z,7.90
2019-05-02T17:15:48.512Z,8.00
2019-05-02T17:18:19.314Z,7.23
2019-05-02T17:20:53.497Z,7.50
2019-05-02T17:23:23.102Z,7.70
2019-05-02T17:25:55.508Z,7.83
2019-05-02T17:28:25.978Z,7.73
2019-05-02T17:30:56.504Z,8.07
2019-05-02T17:33:27.977Z,8.17
2019-05-02T17:35:58.569Z,7.87
2019-05-02T17:38:29.396Z,7.90
2019-05-02T17:41:04.658Z,8.43
2019-05-02T17:43:37.368Z,13.63
2019-05-02T17:46:12.693Z,8.47
2019-05-02T17:48:47.804Z,7.73
2019-05-02T17:51:28.310Z,8.20
2019-05-02T17:53:58.784Z,7.67
2019-05-02T17:56:32.695Z,9.00
2019-05-02T17:59:06.192Z,8.47
2019-05-02T18:01:38.777Z,8.27
2019-05-02T18:04:12.695Z,9.10
2019-05-02T18:06:46.840Z,9.13
2019-05-02T18:09:16.184Z,9.07
2019-05-02T18:11:47.341Z,8.70
2019-05-02T18:14:21.184Z,9.10
2019-05-02T18:16:53.680Z,9.93
2019-05-02T18:19:24.515Z,10.00
2019-05-02T18:21:58.167Z,8.70
2019-05-02T18:24:26.965Z,9.80
2019-05-02T18:26:57.526Z,11.23
2019-05-02T18:29:27.958Z,11.30
2019-05-02T18:31:58.427Z,10.77
2019-05-02T18:34:32.320Z,10.87
2019-05-02T18:37:06.252Z,10.37
2019-05-02T18:39:42.614Z,10.57
2019-05-02T18:42:08.306Z,11.17
2019-05-02T18:44:38.913Z,10.37
2019-05-02T18:47:12.585Z,9.20
2019-05-02T18:49:44.718Z,10.37
2019-05-02T18:52:15.630Z,10.67
2019-05-02T18:54:47.474Z,9.40
2019-05-02T18:57:25.988Z,10.03
2019-05-02T18:59:56.556Z,10.13
2019-05-02T19:02:32.735Z,11.23
2019-05-02T19:05:06.145Z,10.47
2019-05-02T19:07:36.755Z,11.07
2019-05-02T19:10:11.931Z,10.83
2019-05-02T19:12:42.034Z,10.00
2019-05-02T19:15:18.457Z,10.93
2019-05-02T19:17:49.199Z,10.90
2019-05-02T19:20:26.703Z,10.40
2019-05-02T19:23:02.766Z,10.97
2019-05-02T19:25:29.990Z,11.70
2019-05-02T19:28:02.804Z,11.30
2019-05-02T19:30:39.079Z,11.37
2019-05-02T19:33:12.817Z,11.80
2019-05-02T19:35:46.862Z,11.03
2019-05-02T19:38:17.108Z,10.37
2019-05-02T19:40:52.868Z,11.77
2019-05-02T19:43:29.345Z,10.43
2019-05-02T19:46:02.216Z,11.37
2019-05-02T19:48:36.904Z,11.90
2019-05-02T19:51:09.944Z,11.80
2019-05-02T19:53:37.871Z,10.90
2019-05-02T19:56:09.457Z,11.80
2019-05-02T19:58:42.631Z,11.67
2019-05-02T20:01:17.430Z,12.80
2019-05-02T20:03:45.340Z,12.10
2019-05-02T20:06:16.641Z,12.10
2019-05-02T20:08:47.428Z,12.43
2019-05-02T20:11:18.435Z,12.57
2019-05-02T20:13:50.386Z,11.93
2019-05-02T20:16:31.891Z,11.33
2019-05-02T20:19:04.538Z,12.00
2019-05-02T20:21:43.062Z,12.67
2019-05-02T20:24:19.509Z,13.07
2019-05-02T20:26:52.396Z,13.07
2019-05-02T20:29:23.421Z,13.20
2019-05-02T20:31:54.086Z,13.13
2019-05-02T20:34:24.649Z,13.80
2019-05-02T20:36:56.385Z,13.73
2019-05-02T20:39:27.339Z,13.93
2019-05-02T20:41:57.901Z,15.33
2019-05-02T20:44:28.450Z,15.30
2019-05-02T20:47:06.003Z,13.77
2019-05-02T20:49:36.634Z,13.33
2019-05-02T20:52:08.966Z,12.40
2019-05-02T20:54:39.921Z,15.30
2019-05-02T20:57:16.273Z,17.77
2019-05-02T20:59:52.326Z,16.00
2019-05-02T21:02:22.701Z,15.00
2019-05-02T21:04:54.603Z,12.70
2019-05-02T21:07:43.972Z,12.97
2019-05-02T21:10:19.161Z,13.17
2019-05-02T21:12:48.999Z,12.20
2019-05-02T21:15:21.615Z,14.90
2019-05-02T21:17:51.929Z,19.43
2019-05-02T21:20:22.599Z,16.70
2019-05-02T21:22:53.256Z,16.40
2019-05-02T21:25:23.972Z,11.97
2019-05-02T21:27:54.630Z,12.60
2019-05-02T21:30:32.274Z,12.20
2019-05-02T21:33:02.716Z,14.67
2019-05-02T21:35:33.127Z,14.83
2019-05-02T21:38:06.457Z,15.20
2019-05-02T21:40:37.079Z,16.03
2019-05-02T21:43:09.163Z,16.50
2019-05-02T21:45:39.660Z,16.93
2019-05-02T21:48:21.905Z,18.23
2019-05-02T21:51:03.620Z,15.40
2019-05-02T21:53:38.352Z,13.37
2019-05-02T21:56:19.399Z,12.70
2019-05-02T21:59:07.662Z,11.57
2019-05-02T22:01:52.109Z,10.53
2019-05-02T22:04:22.542Z,13.00
2019-05-02T22:06:53.718Z,14.10
2019-05-02T22:09:24.887Z,13.53
2019-05-02T22:11:56.959Z,13.37
2019-05-02T22:14:28.608Z,14.53
2019-05-02T22:22:51.931Z,18.03
2019-05-02T22:25:22.526Z,16.33
2019-05-02T22:27:58.231Z,14.57
2019-05-02T22:30:28.790Z,13.20
2019-05-02T22:33:00.138Z,12.47
2019-05-02T22:35:31.428Z,12.00
2019-05-02T22:38:16.032Z,12.17
2019-05-02T22:40:48.313Z,11.63
2019-05-02T22:43:22.181Z,11.47
2019-05-02T22:45:53.223Z,11.37
2019-05-02T22:48:23.753Z,11.17
2019-05-02T22:50:54.355Z,11.03
2019-05-02T22:53:24.873Z,10.37
2019-05-02T22:55:55.419Z,11.10
2019-05-02T22:58:26.154Z,9.80
2019-05-02T23:00:56.693Z,10.80
2019-05-02T23:03:27.909Z,10.90
2019-05-02T23:06:01.752Z,10.60
2019-05-02T23:08:31.211Z,11.10
2019-05-02T23:11:03.514Z,11.43
2019-05-02T23:13:34.369Z,10.80
2019-05-02T23:16:05.414Z,10.60
2019-05-02T23:18:37.619Z,10.30
2019-05-02T23:21:08.624Z,11.37
2019-05-02T23:23:41.952Z,10.87
2019-05-02T23:26:17.042Z,11.33
2019-05-02T23:28:49.286Z,11.10
2019-05-02T23:31:26.918Z,11.00
2019-05-02T23:34:02.096Z,10.57
2019-05-02T23:36:33.622Z,10.43
2019-05-02T23:39:08.737Z,10.60
2019-05-02T23:41:41.880Z,10.23
2019-05-02T23:44:15.615Z,10.73
2019-05-02T23:46:49.256Z,9.97
2019-05-02T23:49:22.034Z,11.20
2019-05-02T23:51:53.103Z,8.87
2019-05-02T23:54:23.616Z,9.97
2019-05-02T23:56:54.244Z,10.07
2019-05-02T23:59:27.786Z,9.50
